Time;durP1;ratioP1;P1;durP2;ratioP2;P2;SDS_P1;SDS_P2;PMS_P1;PMS_P2;Temp;Humidity;BMP_temperature;BMP_pressure;BME280_temperature;BME280_humidity;BME280_pressure;Samples;Min_cycle;Max_cycle;Signal;HPM_P1;HPM_P2
2023/03/21 00:00:28;;;;;;;28.48;11.13;;;8.60;99.90;;;;;;5051347;28;20468;-74
2023/03/21 00:02:54;;;;;;;;;;;8.60;99.90;;;;;;5051915;28;20021;-74
2023/03/21 00:05:20;;;;;;;20.23;8.25;;;8.90;99.90;;;;;;5049938;28;19959;-74
2023/03/21 00:07:46;;;;;;;;;;;9.20;99.90;;;;;;5051638;28;20032;-74
2023/03/21 00:10:13;;;;;;;15.82;7.18;;;9.60;99.90;;;;;;5051306;28;19908;-74
2023/03/21 00:12:39;;;;;;;17.58;8.90;;;9.90;99.90;;;;;;5051190;28;20041;-75
2023/03/21 00:15:05;;;;;;;;;;;10.20;99.90;;;;;;5051454;28;20029;-74
2023/03/21 00:17:32;;;;;;;10.57;5.63;;;10.40;99.90;;;;;;5049728;28;19915;-74
2023/03/21 00:19:59;;;;;;;6.82;4.55;;;10.50;99.90;;;;;;5051156;28;21062;-74
2023/03/21 00:22:26;;;;;;;9.30;5.53;;;10.60;99.90;;;;;;5050759;28;20029;-74
2023/03/21 00:24:53;;;;;;;7.82;4.20;;;10.60;99.90;;;;;;5050917;28;20051;-74
2023/03/21 00:27:19;;;;;;;12.20;5.13;;;10.60;99.90;;;;;;5050846;28;20047;-74
2023/03/21 00:29:45;;;;;;;;;;;10.60;99.90;;;;;;5051048;28;20521;-75
2023/03/21 00:32:10;;;;;;;10.50;4.93;;;10.40;99.90;;;;;;5050692;28;19921;-74
2023/03/21 00:34:37;;;;;;;;;;;10.30;99.90;;;;;;5049908;28;20452;-75
2023/03/21 00:37:06;;;;;;;14.80;6.53;;;10.20;99.90;;;;;;5050522;28;19905;-74
2023/03/21 00:39:31;;;;;;;10.43;4.55;;;10.10;99.90;;;;;;5050655;28;20100;-74
2023/03/21 00:41:57;;;;;;;;;;;10.10;99.90;;;;;;5050785;28;20108;-74
2023/03/21 00:44:24;;;;;;;10.13;4.65;;;10.00;99.90;;;;;;5050293;28;20280;-74
2023/03/21 00:46:50;;;;;;;12.50;5.68;;;10.00;99.90;;;;;;5049227;28;20028;-75
2023/03/21 00:49:15;;;;;;;;;;;10.00;99.90;;;;;;5049437;28;20469;-74
2023/03/21 00:51:42;;;;;;;18.58;7.85;;;10.00;99.90;;;;;;5048929;28;19917;-73
2023/03/21 00:54:11;;;;;;;21.42;8.93;;;10.10;99.90;;;;;;5048639;28;20024;-74
2023/03/21 00:56:36;;;;;;;18.17;8.05;;;10.00;99.90;;;;;;5050341;28;20033;-74
2023/03/21 00:59:02;;;;;;;;;;;10.00;99.90;;;;;;5049613;28;20025;-75
2023/03/21 01:01:30;;;;;;;19.35;10.15;;;10.10;99.90;;;;;;5049896;28;19963;-75
2023/03/21 01:04:06;;;;;;;13.57;6.85;;;10.10;99.90;;;;;;5050258;28;20033;-74
2023/03/21 01:06:38;;;;;;;17.52;7.30;;;10.00;99.90;;;;;;5048939;28;20037;-75
2023/03/21 01:09:04;;;;;;;13.13;5.65;;;9.90;99.90;;;;;;5050081;28;20044;-74
2023/03/21 01:11:30;;;;;;;10.18;5.13;;;9.90;99.90;;;;;;5049786;28;20033;-74
2023/03/21 01:13:56;;;;;;;;;;;10.00;99.90;;;;;;5050354;28;20867;-74
2023/03/21 01:16:23;;;;;;;11.15;4.68;;;10.00;99.90;;;;;;5050018;28;19908;-74
2023/03/21 01:18:48;;;;;;;8.98;5.60;;;10.00;99.90;;;;;;5049961;28;20033;-75
2023/03/21 01:21:15;;;;;;;;;;;9.90;99.90;;;;;;5050250;28;20039;-74
2023/03/21 01:23:42;;;;;;;15.38;5.95;;;9.80;99.90;;;;;;5048770;28;20380;-74
2023/03/21 01:26:09;;;;;;;13.27;5.75;;;9.70;99.90;;;;;;5048838;28;20063;-76
2023/03/21 01:28:36;;;;;;;22.40;8.75;;;9.70;99.90;;;;;;5048560;28;20065;-74
2023/03/21 01:31:03;;;;;;;20.10;7.65;;;9.50;99.90;;;;;;5048278;28;20064;-74
2023/03/21 01:33:30;;;;;;;13.25;5.85;;;9.40;99.90;;;;;;5048253;28;20627;-74
2023/03/21 01:35:56;;;;;;;16.63;7.10;;;9.30;99.90;;;;;;5049659;28;20024;-75
2023/03/21 01:38:22;;;;;;;10.48;6.32;;;9.30;99.90;;;;;;5049503;28;20542;-74
2023/03/21 01:40:48;;;;;;;;;;;9.30;99.90;;;;;;5048632;28;20025;-74
2023/03/21 01:43:34;;;;;;;11.85;5.68;;;9.20;99.90;;;;;;5049461;28;19946;-75
2023/03/21 01:46:27;;;;;;;13.30;6.07;;;9.10;99.90;;;;;;5047935;28;20040;-74
2023/03/21 01:49:08;;;;;;;16.88;8.35;;;9.10;99.90;;;;;;5049311;28;20021;-73
2023/03/21 01:51:38;;;;;;;13.75;5.78;;;9.00;99.90;;;;;;5049260;28;20037;-75
2023/03/21 01:54:06;;;;;;;10.95;4.53;;;9.00;99.90;;;;;;5049185;28;20025;-74
2023/03/21 01:56:36;;;;;;;13.60;5.57;;;9.00;99.90;;;;;;5049259;28;20052;-74
2023/03/21 01:59:12;;;;;;;12.82;6.20;;;9.00;99.90;;;;;;5048001;28;20033;-73
2023/03/21 02:01:41;;;;;;;;;;;9.10;99.90;;;;;;5048020;28;20028;-74
2023/03/21 02:04:07;;;;;;;6.93;4.35;;;9.20;99.90;;;;;;5049135;28;19909;-74
2023/03/21 02:06:57;;;;;;;9.13;5.05;;;9.20;99.90;;;;;;5047834;28;20120;-73
2023/03/21 02:09:27;;;;;;;15.15;6.90;;;9.20;99.90;;;;;;5049309;28;20204;-74
2023/03/21 02:11:54;;;;;;;16.80;7.35;;;9.10;99.90;;;;;;5048929;28;20037;-74
2023/03/21 02:14:20;;;;;;;16.10;5.60;;;9.10;99.90;;;;;;5047682;28;20033;-74
2023/03/21 02:17:05;;;;;;;;;;;9.00;99.90;;;;;;5049186;28;20025;-73
2023/03/21 02:19:53;;;;;;;12.00;4.50;;;9.00;99.90;;;;;;5047031;28;19909;-74
2023/03/21 02:22:21;;;;;;;10.00;5.63;;;8.90;99.90;;;;;;5048635;28;20209;-75
2023/03/21 02:24:53;;;;;;;11.98;5.47;;;8.80;99.90;;;;;;5047448;28;20025;-74
2023/03/21 02:27:22;;;;;;;9.77;4.82;;;8.80;99.90;;;;;;5048752;28;20807;-75
2023/03/21 02:30:13;;;;;;;8.77;4.93;;;8.70;99.90;;;;;;5048505;28;20044;-74
2023/03/21 02:32:53;;;;;;;11.35;5.05;;;8.80;99.90;;;;;;5048491;28;20036;-74
2023/03/21 02:35:48;;;;;;;7.20;4.18;;;8.80;99.90;;;;;;5047326;28;20053;-74
2023/03/21 02:38:20;;;;;;;9.30;5.05;;;8.90;99.90;;;;;;5047191;28;20028;-74
2023/03/21 02:40:54;;;;;;;10.63;5.13;;;8.90;99.90;;;;;;5047011;28;20021;-74
2023/03/21 02:43:44;;;;;;;9.60;4.85;;;9.00;99.90;;;;;;5048298;28;20032;-74
2023/03/21 02:46:21;;;;;;;9.55;4.78;;;9.00;99.90;;;;;;5046996;28;20050;-74
2023/03/21 02:49:11;;;;;;;11.57;6.28;;;9.00;99.90;;;;;;5048325;28;20020;-74
2023/03/21 02:51:39;;;;;;;10.93;4.85;;;9.10;99.90;;;;;;5046847;28;20142;-74
2023/03/21 02:54:12;;;;;;;17.38;8.93;;;9.20;99.90;;;;;;5047060;28;20068;-73
2023/03/21 02:56:39;;;;;;;8.48;5.13;;;9.20;99.90;;;;;;5048375;28;20063;-74
2023/03/21 02:59:06;;;;;;;6.60;4.50;;;9.20;99.90;;;;;;5047997;28;20036;-74
2023/03/21 03:01:32;;;;;;;8.65;5.43;;;9.20;99.90;;;;;;5048099;28;20497;-75
2023/03/21 03:03:58;;;;;;;8.43;4.75;;;9.20;99.90;;;;;;5046967;28;20051;-73
2023/03/21 03:06:26;;;;;;;;;;;9.10;99.90;;;;;;5048548;28;20033;-74
2023/03/21 03:09:19;;;;;;;13.98;8.43;;;9.10;99.90;;;;;;5046834;28;19909;-74
2023/03/21 03:11:47;;;;;;;22.02;11.43;;;9.10;99.90;;;;;;5046716;28;20442;-74
2023/03/21 03:14:39;;;;;;;25.58;15.43;;;9.20;99.90;;;;;;5046799;28;20045;-74
2023/03/21 03:17:24;;;;;;;15.85;9.73;;;9.30;99.90;;;;;;5051288;28;20480;-74
2023/03/21 03:20:18;;;;;;;23.70;15.30;;;9.40;99.90;;;;;;5052266;28;20412;-74
2023/03/21 03:22:58;;;;;;;10.65;6.10;;;9.40;99.90;;;;;;5050718;28;20031;-75
2023/03/21 03:25:35;;;;;;;15.38;9.38;;;9.50;99.90;;;;;;5051896;28;20029;-75
2023/03/21 03:28:03;;;;;;;16.42;8.98;;;9.50;99.90;;;;;;5050708;28;20043;-74
2023/03/21 03:30:29;;;;;;;20.85;11.38;;;9.50;99.90;;;;;;5051764;28;20053;-75
2023/03/21 03:33:01;;;;;;;10.57;5.75;;;9.50;99.90;;;;;;5050408;28;20064;-75
2023/03/21 03:35:26;;;;;;;9.25;5.28;;;9.50;99.90;;;;;;5051693;28;20110;-74
2023/03/21 03:37:54;;;;;;;;;;;9.50;99.90;;;;;;5052350;28;20033;-74
2023/03/21 03:40:26;;;;;;;9.23;5.10;;;9.50;99.90;;;;;;5050295;28;19927;-74
2023/03/21 03:42:55;;;;;;;8.63;5.47;;;9.50;99.90;;;;;;5051544;28;20024;-74
2023/03/21 03:45:27;;;;;;;7.68;4.65;;;9.60;99.90;;;;;;5051502;28;20064;-75
2023/03/21 03:48:10;;;;;;;8.13;4.93;;;9.60;99.90;;;;;;5051616;28;20029;-74
2023/03/21 03:51:02;;;;;;;7.82;4.72;;;9.60;99.90;;;;;;5050381;28;20405;-75
2023/03/21 03:53:37;;;;;;;7.65;5.13;;;9.60;99.90;;;;;;5051355;28;20028;-74
2023/03/21 03:56:06;;;;;;;9.15;5.53;;;9.60;99.90;;;;;;5051458;28;20083;-74
2023/03/21 03:58:31;;;;;;;10.65;5.78;;;9.60;99.90;;;;;;5051631;28;20021;-74
2023/03/21 04:00:58;;;;;;;;;;;9.70;99.90;;;;;;5051000;28;20025;-74
2023/03/21 04:03:23;;;;;;;31.83;17.20;;;9.70;99.90;;;;;;5051313;28;20569;-74
2023/03/21 04:05:49;;;;;;;;;;;9.70;99.90;;;;;;5051646;28;20111;-74
2023/03/21 04:08:16;;;;;;;33.55;10.43;;;9.80;99.90;;;;;;5049934;28;19909;-74
2023/03/21 04:10:42;;;;;;;23.70;9.23;;;9.90;99.90;;;;;;5051051;28;20032;-75
2023/03/21 04:13:08;;;;;;;11.90;5.90;;;10.10;99.90;;;;;;5050870;28;20092;-74
2023/03/21 04:15:34;;;;;;;;;;;10.20;99.90;;;;;;5051530;28;20124;-74
2023/03/21 04:18:00;;;;;;;9.00;3.72;;;10.30;99.90;;;;;;5051086;28;19905;-74
2023/03/21 04:20:26;;;;;;;;;;;10.30;99.90;;;;;;5051515;28;20040;-74
2023/03/21 04:22:53;;;;;;;6.03;2.72;;;10.40;99.90;;;;;;5049396;28;19909;-75
2023/03/21 04:25:19;;;;;;;4.25;2.15;;;10.50;99.90;;;;;;5050929;28;20029;-73
2023/03/21 04:27:47;;;;;;;7.85;2.00;;;10.70;99.90;;;;;;5048309;28;20877;-74
2023/03/21 04:30:13;;;;;;;5.88;2.03;;;10.80;99.90;;;;;;5050702;28;20052;-74
2023/03/21 04:32:39;;;;;;;4.60;1.83;;;10.80;99.90;;;;;;5050615;28;20463;-74
2023/03/21 04:35:07;;;;;;;;;;;10.90;99.90;;;;;;5050030;28;20032;-74
2023/03/21 04:37:33;;;;;;;3.28;1.70;;;10.90;99.90;;;;;;5050729;28;19909;-74
2023/03/21 04:39:59;;;;;;;3.00;1.60;;;10.90;99.90;;;;;;5050712;28;20112;-75
2023/03/21 04:42:25;;;;;;;;;;;11.00;99.90;;;;;;5051080;28;20032;-75
2023/03/21 04:44:50;;;;;;;3.33;1.88;;;11.00;99.90;;;;;;5050757;28;19909;-74
2023/03/21 04:47:19;;;;;;;;;;;11.00;99.90;;;;;;5050893;28;20063;-75
2023/03/21 04:49:46;;;;;;;5.95;1.75;;;11.10;99.90;;;;;;5050649;28;19909;-74
2023/03/21 04:52:13;;;;;;;3.35;1.70;;;11.10;99.90;;;;;;5050274;28;20025;-74
2023/03/21 04:54:39;;;;;;;3.75;2.08;;;11.20;99.90;;;;;;5050591;28;20534;-75
2023/03/21 04:57:05;;;;;;;;;;;11.20;99.90;;;;;;5049656;28;20021;-74
2023/03/21 04:59:31;;;;;;;2.70;1.70;;;11.20;99.90;;;;;;5050707;28;19966;-74
2023/03/21 05:01:57;;;;;;;3.15;1.77;;;11.20;99.90;;;;;;5050418;28;20033;-74
2023/03/21 05:04:23;;;;;;;;;;;11.10;99.90;;;;;;5050671;28;20025;-74
2023/03/21 05:06:49;;;;;;;4.78;2.20;;;11.10;99.90;;;;;;5048594;28;19915;-72
2023/03/21 05:09:14;;;;;;;;;;;11.10;99.90;;;;;;5050589;28;20036;-74
2023/03/21 05:11:40;;;;;;;7.10;2.50;;;11.10;99.90;;;;;;5048459;28;20369;-74
2023/03/21 05:14:07;;;;;;;;;;;11.10;99.90;;;;;;5050448;28;20393;-74
2023/03/21 05:16:35;;;;;;;9.65;4.88;;;11.10;99.90;;;;;;5049987;28;19915;-74
2023/03/21 05:19:04;;;;;;;14.70;5.53;;;11.10;99.90;;;;;;5048619;28;20041;-73
2023/03/21 05:21:40;;;;;;;12.45;5.88;;;10.90;99.90;;;;;;5049779;28;20032;-74
2023/03/21 05:24:12;;;;;;;8.38;5.00;;;10.90;99.90;;;;;;5049880;28;20575;-74
2023/03/21 05:26:38;;;;;;;9.57;5.28;;;10.90;99.90;;;;;;5047687;28;20078;-73
2023/03/21 05:29:04;;;;;;;9.32;5.72;;;10.90;99.90;;;;;;5049383;28;20037;-73
2023/03/21 05:31:30;;;;;;;;;;;11.00;99.90;;;;;;5049921;28;20040;-74
2023/03/21 05:33:56;;;;;;;12.40;7.80;;;11.00;99.90;;;;;;5049704;28;20296;-73
2023/03/21 05:36:21;;;;;;;;;;;11.00;99.90;;;;;;5048793;28;20421;-74
2023/03/21 05:38:47;;;;;;;13.77;8.88;;;11.00;99.90;;;;;;5049293;28;20292;-73
2023/03/21 05:41:13;;;;;;;;;;;10.90;99.90;;;;;;5048524;28;20512;-74
2023/03/21 05:43:39;;;;;;;18.05;10.35;;;11.00;99.90;;;;;;5049603;28;19952;-74
2023/03/21 05:46:04;;;;;;;;;;;11.00;99.90;;;;;;5049761;28;20126;-74
2023/03/21 05:48:30;;;;;;;16.33;11.20;;;11.00;99.90;;;;;;5049023;28;20691;-73
2023/03/21 05:50:56;;;;;;;;;;;11.00;99.90;;;;;;5049685;28;20029;-74
2023/03/21 05:53:22;;;;;;;24.65;14.18;;;11.00;99.90;;;;;;5047723;28;19917;-74
2023/03/21 05:55:47;;;;;;;;;;;11.00;99.90;;;;;;5049705;28;20082;-73
2023/03/21 05:58:13;;;;;;;29.67;20.65;;;11.00;99.90;;;;;;5047898;28;19944;-73
2023/03/21 06:00:38;;;;;;;;;;;11.00;99.90;;;;;;5049484;28;20029;-74
2023/03/21 06:03:04;;;;;;;27.65;17.65;;;11.20;99.90;;;;;;5048837;28;20368;-74
2023/03/21 06:05:30;;;;;;;;;;;11.20;99.90;;;;;;5048198;28;20032;-74
2023/03/21 06:07:55;;;;;;;25.00;15.05;;;11.40;99.90;;;;;;5047996;28;19916;-74
2023/03/21 06:10:21;;;;;;;;;;;11.60;99.90;;;;;;5047786;28;20052;-74
2023/03/21 06:12:47;;;;;;;20.23;11.27;;;11.90;99.90;;;;;;5048071;28;19913;-74
2023/03/21 06:15:13;;;;;;;;;;;12.30;99.90;;;;;;5049098;28;20029;-72
2023/03/21 06:17:38;;;;;;;19.52;10.43;;;12.50;99.90;;;;;;5047129;28;19908;-74
2023/03/21 06:20:05;;;;;;;;;;;12.80;99.90;;;;;;5049196;28;20036;-74
2023/03/21 06:22:32;;;;;;;16.75;10.27;;;13.30;99.20;;;;;;5048611;28;20003;-75
2023/03/21 06:24:58;;;;;;;18.35;10.85;;;13.60;97.40;;;;;;5048622;28;20112;-73
2023/03/21 06:27:23;;;;;;;;;;;13.90;95.70;;;;;;5048818;28;20462;-74
2023/03/21 06:29:49;;;;;;;21.40;10.45;;;14.30;91.50;;;;;;5048287;28;19925;-74
2023/03/21 06:32:15;;;;;;;18.05;9.00;;;14.70;90.70;;;;;;5046726;28;20029;-73
2023/03/21 06:34:41;;;;;;;;;;;15.20;86.00;;;;;;5048911;28;20029;-74
2023/03/21 06:37:07;;;;;;;16.40;9.35;;;15.60;82.00;;;;;;5048122;28;20388;-73
2023/03/21 06:39:33;;;;;;;15.20;9.38;;;16.10;79.50;;;;;;5046674;28;20704;-74
2023/03/21 06:41:59;;;;;;;23.30;10.93;;;17.00;77.10;;;;;;5048355;28;20029;-75
2023/03/21 06:44:25;;;;;;;14.70;10.07;;;17.90;71.80;;;;;;5048110;28;20056;-73
2023/03/21 06:46:52;;;;;;;22.70;11.82;;;18.60;67.40;;;;;;5048352;28;20035;-75
2023/03/21 06:49:17;;;;;;;16.08;10.95;;;19.40;64.30;;;;;;5048217;28;20049;-75
2023/03/21 06:51:43;;;;;;;27.92;12.57;;;19.80;61.80;;;;;;5047654;28;20056;-75
2023/03/21 06:54:09;;;;;;;18.27;11.40;;;19.90;60.40;;;;;;5048260;28;20039;-76
2023/03/21 06:56:35;;;;;;;23.00;11.75;;;19.80;59.40;;;;;;5047851;28;20471;-74
2023/03/21 06:59:01;;;;;;;18.35;11.85;;;19.60;59.40;;;;;;5048083;28;20029;-74
2023/03/21 07:01:27;;;;;;;18.50;11.60;;;19.50;60.40;;;;;;5047662;28;20021;-74
2023/03/21 07:03:55;;;;;;;25.38;12.02;;;19.60;60.20;;;;;;5048234;28;20060;-74
2023/03/21 07:06:21;;;;;;;18.80;11.15;;;20.00;58.60;;;;;;5048343;28;20022;-74
2023/03/21 07:08:46;;;;;;;19.95;11.77;;;19.40;57.10;;;;;;5048119;28;20041;-74
2023/03/21 07:11:12;;;;;;;17.33;11.32;;;18.70;58.60;;;;;;5047027;28;20481;-74
2023/03/21 07:13:38;;;;;;;14.68;10.57;;;18.50;60.00;;;;;;5046724;28;20086;-75
2023/03/21 07:16:04;;;;;;;18.40;10.02;;;18.80;61.10;;;;;;5047899;28;20021;-74
2023/03/21 07:18:29;;;;;;;13.25;8.65;;;19.60;60.10;;;;;;5047976;28;20512;-75
2023/03/21 07:20:56;;;;;;;20.20;10.02;;;20.60;59.10;;;;;;5047946;28;20040;-75
2023/03/21 07:23:24;;;;;;;18.70;9.07;;;21.40;56.90;;;;;;5047711;28;20033;-75
2023/03/21 07:25:51;;;;;;;14.63;9.05;;;22.30;55.40;;;;;;5048380;28;20044;-74
2023/03/21 07:28:18;;;;;;;19.25;9.50;;;23.00;53.10;;;;;;5047792;28;20048;-75
2023/03/21 07:30:44;;;;;;;17.17;10.15;;;23.50;50.50;;;;;;5047501;28;20048;-74
2023/03/21 07:33:11;;;;;;;13.35;9.40;;;23.90;49.60;;;;;;5047824;28;20060;-73
2023/03/21 07:35:37;;;;;;;14.20;8.80;;;24.20;47.40;;;;;;5047761;28;20040;-75
2023/03/21 07:38:06;;;;;;;15.77;8.98;;;24.30;46.90;;;;;;5046101;28;20029;-75
2023/03/21 07:40:32;;;;;;;18.90;8.77;;;24.50;46.20;;;;;;5046670;28;20439;-76
2023/03/21 07:42:58;;;;;;;18.45;8.38;;;25.00;45.90;;;;;;5047801;28;20104;-75
2023/03/21 07:45:25;;;;;;;11.35;7.47;;;25.60;44.60;;;;;;5047907;28;20536;-74
2023/03/21 07:47:51;;;;;;;12.18;8.77;;;26.10;43.70;;;;;;5048024;28;20021;-75
2023/03/21 07:50:18;;;;;;;15.73;8.77;;;26.50;42.50;;;;;;5047958;28;20035;-75
2023/03/21 07:52:43;;;;;;;11.80;8.00;;;26.70;41.90;;;;;;5047545;28;20051;-74
2023/03/21 07:55:09;;;;;;;20.30;7.85;;;27.00;41.70;;;;;;5047472;28;20037;-75
2023/03/21 07:57:35;;;;;;;9.75;6.70;;;27.40;40.90;;;;;;5047920;28;20452;-75
2023/03/21 08:00:03;;;;;;;15.63;6.78;;;27.70;39.70;;;;;;5047527;28;20572;-75
2023/03/21 08:02:29;;;;;;;14.68;6.50;;;27.70;39.00;;;;;;5049275;28;20021;-74
2023/03/21 08:04:55;;;;;;;9.82;6.20;;;27.50;39.10;;;;;;5049440;28;20032;-75
2023/03/21 08:07:20;;;;;;;9.77;6.30;;;27.60;38.60;;;;;;5049744;28;20474;-76
2023/03/21 08:09:46;;;;;;;10.77;6.10;;;27.50;37.50;;;;;;5050698;28;20134;-75
2023/03/21 08:12:12;;;;;;;10.02;5.10;;;27.20;38.30;;;;;;5050987;28;20025;-75
2023/03/21 08:14:38;;;;;;;11.77;4.65;;;27.20;38.70;;;;;;5049863;28;20036;-75
2023/03/21 08:17:05;;;;;;;12.20;3.85;;;27.40;38.30;;;;;;5050920;28;20579;-74
2023/03/21 08:19:31;;;;;;;9.00;5.15;;;27.70;37.60;;;;;;5049443;28;20025;-75
2023/03/21 08:22:00;;;;;;;9.45;4.93;;;27.50;36.70;;;;;;5050044;28;20032;-74
2023/03/21 08:24:27;;;;;;;11.20;4.72;;;27.20;37.90;;;;;;5050720;28;20033;-75
2023/03/21 08:26:53;;;;;;;6.70;4.60;;;27.00;38.00;;;;;;5050435;28;20112;-75
2023/03/21 08:29:18;;;;;;;5.57;4.05;;;26.90;37.00;;;;;;5050459;28;20147;-74
2023/03/21 08:31:44;;;;;;;8.35;5.05;;;26.40;37.40;;;;;;5050439;28;20445;-75
2023/03/21 08:34:12;;;;;;;7.45;5.25;;;26.30;38.70;;;;;;5050494;28;20044;-74
2023/03/21 08:36:38;;;;;;;9.57;3.97;;;26.50;38.30;;;;;;5050841;28;20025;-75
2023/03/21 08:39:05;;;;;;;9.80;4.53;;;26.80;38.40;;;;;;5049121;28;20546;-74
2023/03/21 08:41:37;;;;;;;6.20;3.60;;;26.40;37.00;;;;;;5049355;28;20028;-74
2023/03/21 08:44:05;;;;;;;7.70;4.05;;;25.80;37.80;;;;;;5050443;28;20512;-74
2023/03/21 08:46:31;;;;;;;7.35;3.80;;;25.20;38.10;;;;;;5049026;28;20444;-75
2023/03/21 08:48:57;;;;;;;9.52;3.10;;;25.60;38.80;;;;;;5049451;28;20040;-76
2023/03/21 08:51:22;;;;;;;3.92;2.70;;;25.90;37.50;;;;;;5050148;28;20024;-74
2023/03/21 08:53:50;;;;;;;4.38;2.65;;;26.20;37.00;;;;;;5048965;28;20496;-75
2023/03/21 08:56:16;;;;;;;9.15;2.45;;;26.00;36.10;;;;;;5049059;28;20028;-75
2023/03/21 08:58:43;;;;;;;3.85;2.10;;;25.70;36.80;;;;;;5050219;28;20029;-73
2023/03/21 09:01:10;;;;;;;5.20;2.38;;;25.10;36.90;;;;;;5048671;28;20028;-75
2023/03/21 09:03:39;;;;;;;8.48;2.08;;;24.30;37.90;;;;;;5049913;28;20108;-75
2023/03/21 09:06:05;;;;;;;3.65;2.40;;;24.30;38.50;;;;;;5050378;28;20108;-75
2023/03/21 09:08:30;;;;;;;2.78;1.80;;;24.80;37.00;;;;;;5048212;28;20033;-75
2023/03/21 09:10:56;;;;;;;1.00;0.50;;;24.80;37.60;;;;;;5048611;28;20025;-75
2023/03/21 09:13:22;;;;;;;2.03;0.70;;;24.90;35.70;;;;;;5049033;28;20102;-75
2023/03/21 09:15:49;;;;;;;1.83;0.80;;;24.60;35.00;;;;;;5049588;28;20052;-75
2023/03/21 09:18:17;;;;;;;3.83;0.88;;;24.90;35.60;;;;;;5048579;28;20064;-75
2023/03/21 09:20:45;;;;;;;2.20;0.90;;;25.50;35.10;;;;;;5049886;28;20112;-75
2023/03/21 09:23:12;;;;;;;1.15;0.63;;;26.20;34.60;;;;;;5049674;28;20543;-75
2023/03/21 09:25:39;;;;;;;1.20;0.68;;;26.50;33.20;;;;;;5048489;28;20029;-75
2023/03/21 09:28:05;;;;;;;1.17;0.80;;;26.50;33.10;;;;;;5049679;28;20025;-73
2023/03/21 09:30:36;;;;;;;0.70;0.50;;;26.20;33.10;;;;;;5049451;28;20106;-75
2023/03/21 09:33:07;;;;;;;1.80;0.80;;;26.40;33.40;;;;;;5049460;28;20040;-75
2023/03/21 09:35:33;;;;;;;0.68;0.50;;;26.60;31.40;;;;;;5048099;28;20142;-75
2023/03/21 09:38:00;;;;;;;0.77;0.50;;;26.20;31.60;;;;;;5048152;28;20640;-74
2023/03/21 09:41:03;;;;;;;0.57;0.30;;;25.50;31.80;;;;;;5049200;28;20040;-75
2023/03/21 09:43:38;;;;;;;1.45;0.60;;;25.20;32.20;;;;;;5049519;28;20112;-75
2023/03/21 09:46:24;;;;;;;1.23;0.60;;;25.60;32.90;;;;;;5049288;28;20025;-75
2023/03/21 09:49:06;;;;;;;1.83;0.60;;;25.40;32.30;;;;;;5047421;28;20043;-75
2023/03/21 09:51:51;;;;;;;1.42;0.70;;;25.50;32.30;;;;;;5047886;28;20036;-75
2023/03/21 09:54:27;;;;;;;0.60;0.47;;;25.90;31.60;;;;;;5048966;28;20041;-74
2023/03/21 09:56:57;;;;;;;0.80;0.63;;;25.60;31.80;;;;;;5047698;28;20124;-75
2023/03/21 09:59:38;;;;;;;1.77;0.55;;;24.90;31.70;;;;;;5048705;28;20493;-74
2023/03/21 10:02:38;;;;;;;1.70;0.40;;;25.10;32.90;;;;;;5048963;28;20452;-74
2023/03/21 10:05:24;;;;;;;4.03;0.52;;;25.40;32.00;;;;;;5048823;28;20025;-74
2023/03/21 10:07:50;;;;;;;;;;;26.30;32.10;;;;;;5047920;28;20544;-74
2023/03/21 10:10:25;;;;;;;0.87;0.40;;;26.40;31.90;;;;;;5048926;28;19999;-74
2023/03/21 10:12:52;;;;;;;1.27;0.73;;;26.10;31.20;;;;;;5047697;28;20299;-74
2023/03/21 10:15:21;;;;;;;1.60;0.80;;;25.80;32.80;;;;;;5047597;28;20029;-74
2023/03/21 10:18:00;;;;;;;3.53;0.82;;;26.00;33.00;;;;;;5048952;28;20033;-74
2023/03/21 10:20:35;;;;;;;3.28;1.60;;;26.30;33.40;;;;;;5048606;28;20050;-74
2023/03/21 10:23:05;;;;;;;2.90;1.20;;;26.50;32.80;;;;;;5048517;28;20044;-75
2023/03/21 10:25:39;;;;;;;3.28;0.90;;;26.80;31.70;;;;;;5046199;28;20134;-74
2023/03/21 10:28:08;;;;;;;1.70;0.90;;;26.30;31.70;;;;;;5047485;28;20378;-75
2023/03/21 10:30:41;;;;;;;1.73;0.90;;;25.40;32.80;;;;;;5048462;28;20041;-75
2023/03/21 10:33:13;;;;;;;1.83;0.70;;;24.80;33.50;;;;;;5047877;28;20083;-74
2023/03/21 10:35:43;;;;;;;2.03;1.00;;;23.90;34.80;;;;;;5048654;28;20021;-74
2023/03/21 10:38:18;;;;;;;1.67;0.55;;;23.40;34.90;;;;;;5048772;28;20037;-75
2023/03/21 10:40:44;;;;;;;1.70;0.70;;;22.70;35.80;;;;;;5048386;28;20009;-75
2023/03/21 10:43:37;;;;;;;1.15;0.63;;;22.20;35.80;;;;;;5048133;28;20039;-74
2023/03/21 10:46:20;;;;;;;1.10;0.55;;;21.80;37.30;;;;;;5048008;28;20067;-74
2023/03/21 10:48:51;;;;;;;1.38;0.80;;;21.60;37.70;;;;;;5046957;28;20508;-73
2023/03/21 10:51:26;;;;;;;1.00;0.50;;;21.40;37.90;;;;;;5046736;28;20021;-74
2023/03/21 10:54:07;;;;;;;1.75;0.70;;;21.30;38.90;;;;;;5046911;28;20094;-74
2023/03/21 10:56:39;;;;;;;1.05;0.50;;;21.20;38.10;;;;;;5048266;28;20029;-73
2023/03/21 10:59:07;;;;;;;1.25;0.50;;;21.10;38.50;;;;;;5046944;28;20013;-75
2023/03/21 11:01:47;;;;;;;1.60;0.70;;;21.10;38.70;;;;;;5046710;28;20033;-74
2023/03/21 11:04:23;;;;;;;1.17;0.60;;;21.10;39.80;;;;;;5048275;28;20136;-74
2023/03/21 11:06:55;;;;;;;2.50;0.80;;;21.40;39.10;;;;;;5046976;28;20025;-74
2023/03/21 11:09:23;;;;;;;2.00;0.70;;;21.40;39.10;;;;;;5047783;28;20033;-74
2023/03/21 11:12:08;;;;;;;1.45;0.70;;;21.50;38.90;;;;;;5047950;28;20207;-74
2023/03/21 11:15:18;;;;;;;0.73;0.30;;;21.50;38.30;;;;;;5046908;28;20037;-72
2023/03/21 11:17:46;;;;;;;1.00;0.40;;;21.70;37.40;;;;;;5047978;28;20025;-73
2023/03/21 11:20:19;;;;;;;1.30;0.60;;;21.70;36.70;;;;;;5048054;28;20028;-74
2023/03/21 11:22:52;;;;;;;1.08;0.50;;;21.60;36.70;;;;;;5046530;28;20033;-73
2023/03/21 11:25:25;;;;;;;4.93;0.47;;;21.70;37.10;;;;;;5046744;28;20493;-74
2023/03/21 11:27:54;;;;;;;0.95;0.30;;;21.80;36.20;;;;;;5047939;28;20079;-72
2023/03/21 11:30:26;;;;;;;1.02;0.40;;;21.80;36.60;;;;;;5046378;28;20444;-74
2023/03/21 11:33:05;;;;;;;4.22;0.40;;;22.00;36.20;;;;;;5047919;28;20094;-72
2023/03/21 11:35:38;;;;;;;0.40;0.30;;;22.00;35.00;;;;;;5047896;28;20100;-75
2023/03/21 11:38:05;;;;;;;1.08;0.60;;;21.90;34.30;;;;;;5050750;28;20067;-74
2023/03/21 11:40:36;;;;;;;2.22;0.75;;;21.90;36.60;;;;;;5050346;28;20119;-74
2023/03/21 11:43:23;;;;;;;4.25;0.82;;;21.80;38.60;;;;;;5051837;28;20103;-75
2023/03/21 11:46:11;;;;;;;5.85;1.00;;;21.50;40.20;;;;;;5050131;28;20035;-74
2023/03/21 11:48:42;;;;;;;1.40;0.52;;;21.10;40.50;;;;;;5051743;28;20048;-75
2023/03/21 11:51:32;;;;;;;2.58;1.13;;;20.70;41.20;;;;;;5050225;28;20036;-74
2023/03/21 11:54:16;;;;;;;1.45;0.50;;;20.50;41.90;;;;;;5050278;28;20037;-74
2023/03/21 11:56:50;;;;;;;1.45;0.70;;;20.30;42.30;;;;;;5050106;28;20025;-74
2023/03/21 11:59:44;;;;;;;3.85;1.08;;;20.00;43.20;;;;;;5051486;28;20025;-74
2023/03/21 12:02:24;;;;;;;1.25;0.55;;;19.80;43.40;;;;;;5049805;28;20021;-75
2023/03/21 12:05:19;;;;;;;3.28;0.68;;;19.60;43.90;;;;;;5051219;28;20076;-75
2023/03/21 12:07:51;;;;;;;1.60;0.80;;;19.60;44.10;;;;;;5051382;28;20549;-75
2023/03/21 12:10:39;;;;;;;9.02;0.70;;;19.60;44.80;;;;;;5051046;28;20170;-73
2023/03/21 12:13:27;;;;;;;1.70;0.80;;;19.90;44.20;;;;;;5050544;28;20040;-75
2023/03/21 12:15:57;;;;;;;2.38;0.60;;;20.00;43.80;;;;;;5049715;28;20060;-74
2023/03/21 12:18:45;;;;;;;2.00;0.80;;;19.80;43.70;;;;;;5051065;28;20111;-74
2023/03/21 12:21:24;;;;;;;3.78;1.40;;;19.50;43.20;;;;;;5050979;28;20150;-74
2023/03/21 12:24:10;;;;;;;1.58;0.55;;;19.30;42.70;;;;;;5051281;28;20033;-75
2023/03/21 12:27:15;;;;;;;1.90;0.60;;;19.10;42.60;;;;;;5050550;28;20532;-73
2023/03/21 12:30:10;;;;;;;5.32;1.00;;;18.80;43.20;;;;;;5049610;28;20068;-73
2023/03/21 12:33:07;;;;;;;1.60;0.80;;;18.60;43.50;;;;;;5050625;28;20170;-74
2023/03/21 12:36:01;;;;;;;1.77;0.90;;;18.60;43.90;;;;;;5050468;28;20033;-73
2023/03/21 12:38:53;;;;;;;1.73;0.70;;;18.30;44.50;;;;;;5051223;28;20033;-73
2023/03/21 12:41:32;;;;;;;2.60;0.80;;;18.20;45.50;;;;;;5050353;28;20083;-74
2023/03/21 12:44:21;;;;;;;2.47;0.85;;;18.00;46.00;;;;;;5050358;28;20028;-74
2023/03/21 12:46:58;;;;;;;3.08;1.38;;;18.00;46.70;;;;;;5050643;28;20029;-73
2023/03/21 12:49:38;;;;;;;3.35;1.33;;;17.90;47.30;;;;;;5049340;28;20017;-72
2023/03/21 12:52:09;;;;;;;6.90;4.07;;;17.90;47.40;;;;;;5050138;28;20032;-73
2023/03/21 12:54:43;;;;;;;3.38;1.75;;;17.80;47.90;;;;;;5049020;28;20091;-74
2023/03/21 12:57:41;;;;;;;2.88;1.52;;;17.80;48.10;;;;;;5049971;28;20053;-74
2023/03/21 13:00:16;;;;;;;3.90;1.88;;;17.70;49.00;;;;;;5049992;28;20527;-74
2023/03/21 13:03:09;;;;;;;4.57;2.17;;;17.60;49.10;;;;;;5049935;28;20039;-74
2023/03/21 13:05:54;;;;;;;7.22;3.08;;;17.50;49.60;;;;;;5050100;28;20436;-73
2023/03/21 13:08:38;;;;;;;10.50;3.08;;;17.40;49.90;;;;;;5050070;28;20025;-73
2023/03/21 13:11:06;;;;;;;4.30;1.60;;;17.40;50.20;;;;;;5049741;28;20048;-74
2023/03/21 13:13:44;;;;;;;3.35;1.60;;;17.40;50.50;;;;;;5049860;28;20040;-75
2023/03/21 13:16:28;;;;;;;2.80;1.48;;;17.40;50.60;;;;;;5049597;28;20071;-74